createdAt,value
2023-04-16T00:00:28.333Z,100730.78
2023-04-16T00:02:31.381Z,100725.63
2023-04-16T00:04:34.617Z,100735.28
2023-04-16T00:06:37.608Z,100735.09
2023-04-16T00:08:43.668Z,100735.59
2023-04-16T00:10:46.721Z,100734.53
2023-04-16T00:12:49.654Z,100735.69
2023-04-16T00:14:52.483Z,100731.03
2023-04-16T00:16:55.341Z,100731.84
2023-04-16T00:18:58.278Z,100734.41
2023-04-16T00:21:01.187Z,100727.53
2023-04-16T00:23:04.182Z,100728.38
2023-04-16T00:25:08.988Z,100730.72
2023-04-16T00:27:12.040Z,100728.09
2023-04-16T00:29:14.949Z,100729.06
2023-04-16T00:31:17.963Z,100729.31
2023-04-16T00:33:20.848Z,100726.88
2023-04-16T00:35:23.918Z,100731.06
2023-04-16T00:37:27.240Z,100723.97
2023-04-16T00:39:31.520Z,100728.31
2023-04-16T00:41:35.739Z,100726.56
2023-04-16T00:43:39.505Z,100730.25
2023-04-16T00:45:42.371Z,100726.78
2023-04-16T00:47:45.243Z,100730.25
2023-04-16T00:49:48.215Z,100734.88
2023-04-16T00:51:51.694Z,100739.16
2023-04-16T00:53:54.730Z,100733.88
2023-04-16T00:55:58.261Z,100740.00
2023-04-16T00:58:02.533Z,100737.22
2023-04-16T01:00:06.274Z,100735.41
2023-04-16T01:02:09.263Z,100740.78
2023-04-16T01:04:12.581Z,100736.56
2023-04-16T01:06:16.233Z,100745.19
2023-04-16T01:08:20.062Z,100739.03
2023-04-16T01:10:23.048Z,100739.84
2023-04-16T01:12:26.337Z,100739.81
2023-04-16T01:14:31.791Z,100740.78
2023-04-16T01:16:35.000Z,100742.72
2023-04-16T01:18:38.712Z,100744.22
2023-04-16T01:20:43.249Z,100746.84
2023-04-16T01:22:46.210Z,100746.06
2023-04-16T01:24:49.301Z,100750.63
2023-04-16T01:26:52.187Z,100745.69
2023-04-16T01:28:55.635Z,100745.56
2023-04-16T01:30:58.529Z,100749.09
2023-04-16T01:33:23.652Z,100749.91
2023-04-16T01:35:26.735Z,100747.28
2023-04-16T01:37:31.953Z,100744.63
2023-04-16T01:39:34.843Z,100747.34
2023-04-16T01:41:37.727Z,100755.91
2023-04-16T01:43:41.391Z,100754.41
2023-04-16T01:45:44.308Z,100758.72
2023-04-16T01:47:48.223Z,100755.13
2023-04-16T01:49:51.186Z,100754.31
2023-04-16T01:51:54.364Z,100753.88
2023-04-16T01:53:58.672Z,100757.38
2023-04-16T01:56:01.863Z,100753.16
2023-04-16T01:58:04.719Z,100756.59
2023-04-16T02:00:10.888Z,100763.59
2023-04-16T02:02:23.929Z,100773.19
2023-04-16T02:04:27.741Z,100767.75
2023-04-16T02:06:31.599Z,100766.31
2023-04-16T02:08:34.581Z,100765.00
2023-04-16T02:10:38.885Z,100771.06
2023-04-16T02:12:41.977Z,100765.78
2023-04-16T02:14:44.943Z,100765.03
2023-04-16T02:16:49.767Z,100760.91
2023-04-16T02:19:16.152Z,100756.34
2023-04-16T02:21:20.184Z,100770.06
2023-04-16T02:23:23.160Z,100768.47
2023-04-16T02:25:26.747Z,100771.00
2023-04-16T02:27:33.076Z,100776.34
2023-04-16T02:29:49.922Z,100768.38
2023-04-16T02:31:53.937Z,100764.75
2023-04-16T02:33:57.272Z,100773.53
2023-04-16T02:36:00.428Z,100769.03
2023-04-16T02:38:04.225Z,100767.53
2023-04-16T02:40:09.326Z,100769.25
2023-04-16T02:42:12.521Z,100770.03
2023-04-16T02:44:16.876Z,100765.72
2023-04-16T02:46:19.879Z,100765.63
2023-04-16T02:48:22.794Z,100768.97
2023-04-16T02:50:25.670Z,100767.16
2023-04-16T02:52:28.545Z,100763.66
2023-04-16T02:54:31.423Z,100772.56
2023-04-16T02:56:34.439Z,100764.78
2023-04-16T02:58:37.434Z,100764.19
2023-04-16T03:00:42.428Z,100765.72
2023-04-16T03:02:45.431Z,100769.84
2023-04-16T03:04:48.499Z,100764.69
2023-04-16T03:06:51.416Z,100771.84
2023-04-16T03:08:54.313Z,100767.22
2023-04-16T03:10:57.231Z,100772.50
2023-04-16T03:13:00.132Z,100767.91
2023-04-16T03:15:03.251Z,100769.63
2023-04-16T03:17:07.492Z,100761.78
2023-04-16T03:19:10.601Z,100767.03
2023-04-16T03:21:13.574Z,100768.75
2023-04-16T03:23:16.469Z,100760.25
2023-04-16T03:25:20.834Z,100773.28
2023-04-16T03:27:23.660Z,100772.47
2023-04-16T03:29:26.818Z,100770.34
2023-04-16T03:31:30.790Z,100769.56
2023-04-16T03:33:36.572Z,100771.94
2023-04-16T03:35:40.867Z,100771.94
2023-04-16T03:37:43.978Z,100772.63
2023-04-16T03:39:46.871Z,100777.81
2023-04-16T03:41:49.773Z,100777.84
2023-04-16T03:43:52.633Z,100785.81
2023-04-16T03:45:57.550Z,100779.72
2023-04-16T03:48:00.960Z,100778.72
2023-04-16T03:50:06.150Z,100778.72
2023-04-16T03:52:11.735Z,100783.97
2023-04-16T03:54:14.660Z,100786.66
2023-04-16T03:56:21.124Z,100791.00
2023-04-16T03:58:26.455Z,100785.78
2023-04-16T04:00:29.875Z,100789.22
2023-04-16T04:02:40.600Z,100781.22
2023-04-16T04:04:49.286Z,100784.72
2023-04-16T04:06:53.796Z,100781.09
2023-04-16T04:08:56.848Z,100783.91
2023-04-16T04:10:59.775Z,100788.00
2023-04-16T04:13:04.678Z,100780.34
2023-04-16T04:15:09.567Z,100786.38
2023-04-16T04:17:12.452Z,100783.69
2023-04-16T04:19:15.422Z,100782.91
2023-04-16T04:21:18.697Z,100783.38
2023-04-16T04:23:22.914Z,100794.56
2023-04-16T04:25:26.424Z,100789.56
2023-04-16T04:27:29.485Z,100793.13
2023-04-16T04:29:32.713Z,100803.31
2023-04-16T04:31:36.028Z,100799.91
2023-04-16T04:33:39.019Z,100803.53
2023-04-16T04:35:42.589Z,100806.34
2023-04-16T04:37:45.594Z,100813.09
2023-04-16T04:39:53.442Z,100811.22
2023-04-16T04:41:56.622Z,100811.88
2023-04-16T04:43:59.630Z,100815.06
2023-04-16T04:46:02.660Z,100815.66
2023-04-16T04:48:06.903Z,100819.00
2023-04-16T04:50:11.481Z,100817.19
2023-04-16T04:52:15.337Z,100823.47
2023-04-16T04:54:18.610Z,100824.47
2023-04-16T04:56:22.823Z,100817.97
2023-04-16T04:58:25.699Z,100827.00
2023-04-16T05:00:28.539Z,100827.66
2023-04-16T05:02:32.943Z,100825.28
2023-04-16T05:04:36.129Z,100822.47
2023-04-16T05:06:39.011Z,100827.78
2023-04-16T05:08:42.206Z,100828.47
2023-04-16T05:10:45.369Z,100824.06
2023-04-16T05:12:49.712Z,100829.66
2023-04-16T05:14:52.602Z,100827.22
2023-04-16T05:16:55.572Z,100834.50
2023-04-16T05:18:59.032Z,100829.13
2023-04-16T05:21:01.991Z,100832.81
2023-04-16T05:23:04.856Z,100839.84
2023-04-16T05:25:08.045Z,100840.50
2023-04-16T05:27:10.992Z,100841.59
2023-04-16T05:29:15.284Z,100843.13
2023-04-16T05:31:18.237Z,100836.44
2023-04-16T05:33:21.366Z,100843.38
2023-04-16T05:35:25.580Z,100832.00
2023-04-16T05:37:28.658Z,100846.81
2023-04-16T05:39:31.571Z,100836.22
2023-04-16T05:41:34.643Z,100844.03
2023-04-16T05:43:39.297Z,100845.63
2023-04-16T05:45:44.018Z,100857.03
2023-04-16T05:47:46.979Z,100854.41
2023-04-16T05:49:49.909Z,100850.84
2023-04-16T05:51:52.795Z,100862.97
2023-04-16T05:53:55.875Z,100863.09
2023-04-16T05:55:58.733Z,100867.28
2023-04-16T05:58:04.325Z,100862.09
2023-04-16T06:00:08.622Z,100866.50
2023-04-16T06:02:22.701Z,100874.44
2023-04-16T06:04:25.976Z,100880.59
2023-04-16T06:06:28.926Z,100878.91
2023-04-16T06:08:31.857Z,100876.34
2023-04-16T06:10:34.842Z,100881.63
2023-04-16T06:12:37.959Z,100872.81
2023-04-16T06:14:42.089Z,100879.03
2023-04-16T06:16:44.996Z,100878.75
2023-04-16T06:18:49.306Z,100868.16
2023-04-16T06:20:52.248Z,100876.94
2023-04-16T06:22:55.261Z,100878.53
2023-04-16T06:24:58.111Z,100875.97
2023-04-16T06:27:01.195Z,100887.41
2023-04-16T06:29:04.128Z,100880.25
2023-04-16T06:31:07.036Z,100875.84
2023-04-16T06:33:10.436Z,100881.44
2023-04-16T06:35:16.040Z,100878.41
2023-04-16T06:37:19.246Z,100878.31
2023-04-16T06:39:22.488Z,100887.19
2023-04-16T06:41:26.692Z,100894.03
2023-04-16T06:43:30.031Z,100891.41
2023-04-16T06:45:32.950Z,100890.41
2023-04-16T06:47:36.008Z,100889.75
2023-04-16T06:49:39.911Z,100894.63
2023-04-16T06:51:44.368Z,100894.75
2023-04-16T06:53:47.298Z,100895.50
2023-04-16T06:55:50.549Z,100901.78
2023-04-16T06:57:53.580Z,100901.06
2023-04-16T06:59:56.757Z,100900.91
2023-04-16T07:02:00.107Z,100899.63
2023-04-16T07:04:03.898Z,100901.25
2023-04-16T07:06:07.217Z,100899.31
2023-04-16T07:08:11.830Z,100908.25
2023-04-16T07:10:14.772Z,100908.56
2023-04-16T07:12:17.622Z,100907.84
2023-04-16T07:14:20.563Z,100912.94
2023-04-16T07:16:23.767Z,100914.44
2023-04-16T07:18:26.704Z,100916.28
2023-04-16T07:20:29.662Z,100908.00
2023-04-16T07:22:32.827Z,100911.06
2023-04-16T07:24:37.217Z,100916.28
2023-04-16T07:26:40.159Z,100913.72
2023-04-16T07:28:43.064Z,100910.69
2023-04-16T07:30:46.170Z,100907.91
2023-04-16T07:32:49.023Z,100905.91
2023-04-16T07:34:53.522Z,100915.28
2023-04-16T07:40:39.288Z,100923.97
2023-04-16T07:42:42.235Z,100928.03
2023-04-16T07:44:45.620Z,100926.38
2023-04-16T07:46:48.624Z,100925.56
2023-04-16T07:48:51.647Z,100923.81
2023-04-16T07:50:54.560Z,100926.75
2023-04-16T07:52:57.430Z,100916.88
2023-04-16T07:55:00.777Z,100928.50
2023-04-16T07:57:05.386Z,100923.88
2023-04-16T08:01:17.724Z,100931.84
2023-04-16T08:03:20.733Z,100942.38
2023-04-16T08:05:23.837Z,100938.53
2023-04-16T08:07:27.034Z,100938.47
2023-04-16T08:09:30.668Z,100941.25
2023-04-16T08:11:33.885Z,100938.47
2023-04-16T08:13:38.152Z,100946.22
2023-04-16T08:15:41.627Z,100945.50
2023-04-16T08:17:44.996Z,100949.94
2023-04-16T08:19:48.111Z,100951.69
2023-04-16T08:21:51.437Z,100962.16
2023-04-16T08:23:54.533Z,100967.34
2023-04-16T08:25:58.802Z,100968.25
2023-04-16T08:28:01.697Z,100967.25
2023-04-16T08:30:07.381Z,100966.94
2023-04-16T08:32:10.651Z,100971.16
2023-04-16T08:34:13.548Z,100972.94
2023-04-16T08:36:16.757Z,100972.03
2023-04-16T08:38:19.664Z,100975.44
2023-04-16T08:40:23.027Z,100976.56
2023-04-16T08:42:32.512Z,100975.63
2023-04-16T08:44:37.367Z,100985.53
2023-04-16T08:46:42.816Z,100976.41
2023-04-16T08:48:52.928Z,100986.66
2023-04-16T08:50:56.543Z,100982.22
2023-04-16T08:53:06.202Z,100987.09
2023-04-16T08:55:14.180Z,100982.41
2023-04-16T08:57:20.962Z,100986.50
2023-04-16T08:59:24.244Z,100977.28
2023-04-16T09:01:28.853Z,100988.50
2023-04-16T09:03:36.465Z,100985.56
2023-04-16T09:05:40.742Z,100988.22
2023-04-16T09:07:44.406Z,100982.41
2023-04-16T09:09:50.754Z,100984.28
2023-04-16T09:11:54.831Z,100988.63
2023-04-16T09:13:58.604Z,100988.78
2023-04-16T09:16:05.043Z,100988.47
2023-04-16T09:18:08.752Z,100995.22
2023-04-16T09:20:14.966Z,100997.31
2023-04-16T09:22:23.676Z,100989.91
2023-04-16T09:24:40.712Z,100994.78
2023-04-16T09:26:44.981Z,100998.63
2023-04-16T09:28:52.930Z,100993.00
2023-04-16T09:31:10.848Z,101003.00
2023-04-16T09:33:16.877Z,101008.19
2023-04-16T09:35:23.608Z,101007.31
2023-04-16T09:37:29.840Z,101007.16
2023-04-16T09:39:36.567Z,101009.97
2023-04-16T09:41:45.802Z,101008.47
2023-04-16T09:43:57.687Z,101016.06
2023-04-16T09:46:07.310Z,101013.22
2023-04-16T09:48:15.298Z,101015.78
2023-04-16T09:50:24.227Z,101013.06
2023-04-16T09:52:28.313Z,101013.91
2023-04-16T09:54:35.094Z,101016.91
2023-04-16T09:56:42.320Z,101024.16
2023-04-16T09:58:46.096Z,101017.94
2023-04-16T10:00:52.431Z,101026.47
2023-04-16T10:03:07.512Z,101015.06
2023-04-16T10:05:12.100Z,101019.34
2023-04-16T10:07:19.083Z,101006.56
2023-04-16T10:09:23.256Z,101024.03
2023-04-16T10:11:26.909Z,101018.59
2023-04-16T10:13:32.088Z,101022.16
2023-04-16T10:15:35.433Z,101016.75
2023-04-16T10:17:39.900Z,101021.59
2023-04-16T10:19:44.835Z,101013.03
2023-04-16T10:21:50.027Z,101016.47
2023-04-16T10:23:56.677Z,101015.75
2023-04-16T10:26:05.582Z,101020.53
2023-04-16T10:28:17.677Z,101023.34
2023-04-16T10:30:24.504Z,101023.28
2023-04-16T10:32:28.977Z,101022.03
2023-04-16T10:34:33.126Z,101024.22
2023-04-16T10:36:40.925Z,101025.94
2023-04-16T10:38:50.398Z,101023.06
2023-04-16T10:41:04.465Z,101024.44
2023-04-16T10:43:09.073Z,101026.22
2023-04-16T10:45:15.160Z,101023.66
2023-04-16T10:47:24.318Z,101025.53
2023-04-16T10:49:29.721Z,101021.56
2023-04-16T10:51:35.819Z,101019.50
2023-04-16T10:53:39.112Z,101015.75
2023-04-16T10:56:02.257Z,101010.00
2023-04-16T10:58:28.977Z,101017.16
2023-04-16T11:00:33.082Z,101019.25
2023-04-16T11:02:36.445Z,101020.63
2023-04-16T11:04:45.149Z,101015.03
2023-04-16T11:07:10.321Z,101011.19
2023-04-16T11:09:46.005Z,101015.31
2023-04-16T11:11:49.671Z,101015.63
2023-04-16T11:13:58.247Z,101008.56
2023-04-16T11:16:03.260Z,101016.34
2023-04-16T11:18:07.250Z,101007.75
2023-04-16T11:20:20.540Z,101013.59
2023-04-16T11:22:24.942Z,101010.22
2023-04-16T11:24:30.836Z,101016.53
2023-04-16T11:26:35.530Z,101014.50
2023-04-16T11:28:43.090Z,101014.72
2023-04-16T11:30:49.994Z,101012.53
2023-04-16T11:32:54.297Z,101008.03
2023-04-16T11:34:57.455Z,101009.69
2023-04-16T11:37:01.108Z,101008.31
2023-04-16T11:39:04.965Z,101008.28
2023-04-16T11:41:09.457Z,101011.50
2023-04-16T11:43:16.394Z,101008.66
2023-04-16T11:45:20.069Z,101011.41
2023-04-16T11:47:25.648Z,101012.59
2023-04-16T11:49:29.734Z,101010.72
2023-04-16T11:51:32.852Z,101012.91
2023-04-16T11:53:36.961Z,101016.28
2023-04-16T11:55:44.563Z,101018.69
2023-04-16T11:57:51.935Z,101017.59
2023-04-16T12:00:01.455Z,101027.16
2023-04-16T12:02:15.894Z,101024.00
2023-04-16T12:04:22.810Z,101024.47
2023-04-16T12:06:26.206Z,101020.31
2023-04-16T12:08:31.739Z,101018.56
2023-04-16T12:10:36.597Z,101026.75
2023-04-16T12:12:39.581Z,101026.81
2023-04-16T12:14:59.731Z,101033.56
2023-04-16T12:17:20.743Z,101029.50
2023-04-16T12:19:26.025Z,101026.50
2023-04-16T12:21:38.564Z,101026.34
2023-04-16T12:23:42.580Z,101023.47
2023-04-16T12:25:46.415Z,101033.09
2023-04-16T12:27:53.463Z,101017.25
2023-04-16T12:30:08.704Z,101021.84
2023-04-16T12:32:23.707Z,101024.56
2023-04-16T12:34:48.080Z,101021.97
2023-04-16T12:37:04.750Z,101027.22
2023-04-16T12:39:08.283Z,101027.47
2023-04-16T12:41:11.330Z,101027.41
2023-04-16T12:43:18.237Z,101032.72
2023-04-16T12:45:23.064Z,101031.91
2023-04-16T12:47:26.411Z,101039.13
2023-04-16T12:49:31.281Z,101031.41
2023-04-16T12:51:34.500Z,101027.81
2023-04-16T12:53:37.345Z,101028.81
2023-04-16T12:55:40.588Z,101035.38
2023-04-16T12:57:43.573Z,101028.13
2023-04-16T12:59:47.986Z,101027.06
2023-04-16T13:01:51.281Z,101031.47
2023-04-16T13:03:54.578Z,101030.28
2023-04-16T13:06:02.343Z,101028.50
2023-04-16T13:08:05.445Z,101024.97
2023-04-16T13:10:09.561Z,101033.81
2023-04-16T13:12:12.678Z,101035.28
2023-04-16T13:14:15.989Z,101035.59
2023-04-16T13:16:19.546Z,101035.69
2023-04-16T13:18:23.070Z,101030.28
2023-04-16T13:20:25.983Z,101039.38
2023-04-16T13:22:30.294Z,101032.13
2023-04-16T13:24:33.938Z,101029.09
2023-04-16T13:26:37.283Z,101026.09
2023-04-16T13:28:40.722Z,101035.84
2023-04-16T13:30:45.709Z,101028.34
2023-04-16T13:32:48.665Z,101030.84
2023-04-16T13:34:53.715Z,101030.84
2023-04-16T13:36:56.898Z,101027.03
2023-04-16T13:39:01.451Z,101026.66
2023-04-16T13:41:04.669Z,101020.56
2023-04-16T13:43:08.308Z,101025.53
2023-04-16T13:45:11.345Z,101021.44
2023-04-16T13:47:14.369Z,101026.25
2023-04-16T13:49:17.627Z,101031.16
2023-04-16T13:51:21.677Z,101020.41
2023-04-16T13:53:24.966Z,101027.81
2023-04-16T13:55:29.516Z,101026.81
2023-04-16T13:57:32.615Z,101025.94
2023-04-16T13:59:35.599Z,101023.59
2023-04-16T14:01:40.019Z,101023.78
2023-04-16T14:03:43.367Z,101022.63
2023-04-16T14:05:46.566Z,101016.63
2023-04-16T14:07:49.563Z,101023.66
2023-04-16T14:09:52.412Z,101017.19
2023-04-16T14:11:56.773Z,101022.25
2023-04-16T14:13:59.722Z,101023.50
2023-04-16T14:16:03.688Z,101025.66
2023-04-16T14:18:06.847Z,101023.66
2023-04-16T14:20:11.700Z,101026.19
2023-04-16T14:22:17.703Z,101027.09
2023-04-16T14:24:21.795Z,101032.63
2023-04-16T14:26:24.981Z,101026.75
2023-04-16T14:28:29.367Z,101027.53
2023-04-16T14:30:32.475Z,101029.56
2023-04-16T14:32:36.263Z,101033.19
2023-04-16T14:34:39.574Z,101028.41
2023-04-16T14:36:42.507Z,101029.97
2023-04-16T14:38:45.707Z,101031.19
2023-04-16T14:40:49.803Z,101027.72
2023-04-16T14:42:52.753Z,101027.72
2023-04-16T14:44:57.193Z,101026.97
2023-04-16T14:47:00.413Z,101029.81
2023-04-16T14:49:04.016Z,101028.31
2023-04-16T14:51:07.285Z,101031.84
2023-04-16T14:53:10.478Z,101037.72
2023-04-16T14:55:13.347Z,101040.19
2023-04-16T14:57:17.741Z,101031.41
2023-04-16T14:59:20.809Z,101032.78
2023-04-16T15:01:26.115Z,101035.28
2023-04-16T15:03:29.262Z,101033.00
2023-04-16T15:05:32.967Z,101036.34
2023-04-16T15:07:36.254Z,101032.13
2023-04-16T15:09:41.994Z,101031.41
2023-04-16T15:11:45.221Z,101033.19
2023-04-16T15:13:48.531Z,101024.09
2023-04-16T15:15:53.070Z,101029.81
2023-04-16T15:18:00.380Z,101027.00
2023-04-16T15:20:06.531Z,101034.72
2023-04-16T15:22:09.665Z,101034.41
2023-04-16T15:24:12.916Z,101036.50
2023-04-16T15:26:16.300Z,101034.56
2023-04-16T15:28:19.651Z,101032.41
2023-04-16T15:30:22.879Z,101036.00
2023-04-16T15:32:25.859Z,101036.94
2023-04-16T15:34:30.648Z,101035.44
2023-04-16T15:36:34.358Z,101034.88
2023-04-16T15:38:37.878Z,101033.44
2023-04-16T15:40:42.592Z,101026.97
2023-04-16T15:42:45.854Z,101033.56
2023-04-16T15:44:50.290Z,101038.56
2023-04-16T15:46:54.010Z,101031.81
2023-04-16T15:48:56.963Z,101027.78
2023-04-16T15:51:01.305Z,101034.72
2023-04-16T15:53:04.831Z,101037.78
2023-04-16T15:55:08.035Z,101037.88
2023-04-16T15:57:11.356Z,101040.66
2023-04-16T15:59:14.607Z,101032.88
2023-04-16T16:01:18.150Z,101031.84
2023-04-16T16:03:22.486Z,101033.19
2023-04-16T16:05:26.261Z,101034.94
2023-04-16T16:07:30.460Z,101035.84
2023-04-16T16:09:33.439Z,101032.44
2023-04-16T16:11:38.888Z,101037.28
2023-04-16T16:13:42.171Z,101031.25
2023-04-16T16:15:45.495Z,101036.31
2023-04-16T16:17:48.565Z,101034.41
2023-04-16T16:19:52.657Z,101038.16
2023-04-16T16:21:57.516Z,101046.50
2023-04-16T16:24:05.061Z,101043.19
2023-04-16T16:26:08.098Z,101041.69
2023-04-16T16:28:16.360Z,101038.56
2023-04-16T16:30:19.464Z,101043.47
2023-04-16T16:32:23.969Z,101045.84
2023-04-16T16:34:36.489Z,101042.81
2023-04-16T16:36:39.852Z,101041.94
2023-04-16T16:38:43.161Z,101048.00
2023-04-16T16:40:47.496Z,101051.88
2023-04-16T16:42:52.973Z,101033.09
2023-04-16T16:44:57.897Z,101049.50
2023-04-16T16:47:01.522Z,101044.34
2023-04-16T16:49:06.092Z,101046.84
2023-04-16T16:51:11.011Z,101043.97
2023-04-16T16:53:14.202Z,101047.84
2023-04-16T16:55:18.672Z,101052.97
2023-04-16T16:57:23.844Z,101048.22
2023-04-16T16:59:26.784Z,101048.72
2023-04-16T17:01:31.301Z,101051.47
2023-04-16T17:03:35.559Z,101050.25
2023-04-16T17:05:38.552Z,101048.56
2023-04-16T17:07:41.697Z,101047.59
2023-04-16T17:09:44.716Z,101049.28
2023-04-16T17:11:47.746Z,101048.22
2023-04-16T17:13:52.618Z,101057.03
2023-04-16T17:15:55.496Z,101046.13
2023-04-16T17:17:58.763Z,101046.34
2023-04-16T17:20:04.213Z,101048.72
2023-04-16T17:22:07.304Z,101052.94
2023-04-16T17:24:10.651Z,101051.06
2023-04-16T17:26:13.836Z,101046.31
2023-04-16T17:28:17.088Z,101045.34
2023-04-16T17:30:23.688Z,101049.78
2023-04-16T17:32:27.495Z,101050.78
2023-04-16T17:34:30.900Z,101054.94
2023-04-16T17:36:33.971Z,101055.66
2023-04-16T17:38:36.871Z,101061.78
2023-04-16T17:40:39.807Z,101066.66
2023-04-16T17:42:42.739Z,101056.88
2023-04-16T17:44:45.868Z,101064.72
2023-04-16T17:46:50.326Z,101065.13
2023-04-16T17:48:53.232Z,101065.84
2023-04-16T17:50:56.517Z,101070.50
2023-04-16T17:53:03.550Z,101068.38
2023-04-16T17:55:07.676Z,101069.56
2023-04-16T17:57:10.616Z,101067.94
2023-04-16T17:59:13.529Z,101071.31
2023-04-16T18:01:16.460Z,101077.53
2023-04-16T18:03:22.124Z,101079.34
2023-04-16T18:05:25.824Z,101080.47
2023-04-16T18:07:28.810Z,101078.63
2023-04-16T18:09:31.743Z,101071.94
2023-04-16T18:11:34.956Z,101085.13
2023-04-16T18:13:38.205Z,101079.03
2023-04-16T18:15:41.657Z,101082.00
2023-04-16T18:17:44.627Z,101084.59
2023-04-16T18:19:49.055Z,101085.53
2023-04-16T18:21:52.006Z,101085.69
2023-04-16T18:23:54.924Z,101086.88
2023-04-16T18:25:58.685Z,101085.41
2023-04-16T18:28:01.902Z,101089.38
2023-04-16T18:30:06.320Z,101081.50
2023-04-16T18:32:11.970Z,101093.47
2023-04-16T18:34:15.509Z,101092.97
2023-04-16T18:36:19.738Z,101095.44
2023-04-16T18:38:22.737Z,101096.72
2023-04-16T18:40:26.026Z,101091.50
2023-04-16T18:42:29.293Z,101099.50
2023-04-16T18:44:32.214Z,101102.31
2023-04-16T18:46:35.224Z,101105.88
2023-04-16T18:48:38.121Z,101106.06
2023-04-16T18:50:41.313Z,101108.78
2023-04-16T18:52:45.622Z,101113.09
2023-04-16T18:54:48.574Z,101112.25
2023-04-16T18:56:51.482Z,101103.34
2023-04-16T18:58:54.371Z,101107.81
2023-04-16T19:00:58.434Z,101104.34
2023-04-16T19:03:06.935Z,101115.94
2023-04-16T19:05:11.318Z,101111.50
2023-04-16T19:07:15.588Z,101113.28
2023-04-16T19:09:20.081Z,101112.50
2023-04-16T19:11:23.056Z,101110.75
2023-04-16T19:13:27.519Z,101116.31
2023-04-16T19:15:32.630Z,101121.72
2023-04-16T19:17:36.816Z,101119.06
2023-04-16T19:19:39.678Z,101113.81
2023-04-16T19:21:42.746Z,101116.53
2023-04-16T19:23:45.770Z,101124.69
2023-04-16T19:25:51.073Z,101128.25
2023-04-16T19:27:55.828Z,101130.00
2023-04-16T19:29:58.826Z,101125.56
2023-04-16T19:32:03.267Z,101129.25
2023-04-16T19:34:06.400Z,101128.56
2023-04-16T19:36:09.459Z,101127.69
2023-04-16T19:38:12.486Z,101129.47
2023-04-16T19:40:15.446Z,101127.75
2023-04-16T19:42:19.774Z,101129.59
2023-04-16T19:44:23.494Z,101135.72
2023-04-16T19:46:26.413Z,101133.88
2023-04-16T19:48:31.397Z,101136.53
2023-04-16T19:50:34.553Z,101136.66
2023-04-16T19:52:39.117Z,101141.81
2023-04-16T19:54:43.746Z,101145.44
2023-04-16T19:56:46.721Z,101132.13
2023-04-16T19:58:51.544Z,101128.69
2023-04-16T20:00:57.452Z,101139.03
2023-04-16T20:03:00.595Z,101136.53
2023-04-16T20:05:03.899Z,101141.94
2023-04-16T20:07:06.847Z,101140.19
2023-04-16T20:09:10.051Z,101147.38
2023-04-16T20:11:13.180Z,101144.94
2023-04-16T20:13:18.585Z,101141.00
2023-04-16T20:15:23.142Z,101139.19
2023-04-16T20:17:26.049Z,101148.34
2023-04-16T20:19:33.696Z,101151.81
2023-04-16T20:21:36.865Z,101152.91
2023-04-16T20:23:39.727Z,101149.09
2023-04-16T20:25:43.474Z,101156.34
2023-04-16T20:27:46.398Z,101153.66
2023-04-16T20:29:49.791Z,101154.47
2023-04-16T20:31:54.042Z,101158.75
2023-04-16T20:33:56.924Z,101164.25
2023-04-16T20:35:59.814Z,101162.34
2023-04-16T20:38:02.973Z,101159.81
2023-04-16T20:40:11.393Z,101167.53
2023-04-16T20:42:16.093Z,101166.50
2023-04-16T20:44:26.702Z,101160.66
2023-04-16T20:46:30.478Z,101167.56
2023-04-16T20:48:35.674Z,101170.69
2023-04-16T20:50:38.618Z,101166.00
2023-04-16T20:52:42.947Z,101172.28
2023-04-16T20:54:46.050Z,101172.31
2023-04-16T20:56:50.519Z,101173.09
2023-04-16T20:58:54.002Z,101174.94
2023-04-16T21:00:57.905Z,101175.88
2023-04-16T21:03:01.033Z,101174.28
2023-04-16T21:05:09.718Z,101178.88
2023-04-16T21:07:13.359Z,101172.56
2023-04-16T21:09:16.475Z,101180.41
2023-04-16T21:11:19.538Z,101177.94
2023-04-16T21:13:22.452Z,101176.91
2023-04-16T21:15:25.410Z,101174.34
2023-04-16T21:17:28.895Z,101179.59
2023-04-16T21:19:32.054Z,101180.81
2023-04-16T21:21:36.675Z,101179.66
2023-04-16T21:23:39.872Z,101179.66
2023-04-16T21:25:42.718Z,101184.03
2023-04-16T21:27:50.456Z,101181.41
2023-04-16T21:29:53.432Z,101180.38
2023-04-16T21:31:56.696Z,101186.94
2023-04-16T21:34:02.283Z,101183.47
2023-04-16T21:36:05.665Z,101193.00
2023-04-16T21:38:10.140Z,101181.50
2023-04-16T21:40:13.650Z,101185.88
2023-04-16T21:42:16.573Z,101191.16
2023-04-16T21:44:21.074Z,101184.16
2023-04-16T21:46:25.423Z,101184.16
2023-04-16T21:48:28.751Z,101184.09
2023-04-16T21:50:31.816Z,101189.47
2023-04-16T21:52:40.610Z,101190.25
2023-04-16T21:54:45.450Z,101186.88
2023-04-16T21:56:48.713Z,101181.50
2023-04-16T21:58:51.632Z,101180.69
2023-04-16T22:00:54.886Z,101177.94
2023-04-16T22:03:00.183Z,101179.75
2023-04-16T22:05:03.393Z,101181.50
2023-04-16T22:07:09.140Z,101178.88
2023-04-16T22:09:12.363Z,101181.94
2023-04-16T22:11:18.032Z,101180.84
2023-04-16T22:13:21.667Z,101176.31
2023-04-16T22:15:25.024Z,101176.31
2023-04-16T22:17:28.983Z,101181.78
2023-04-16T22:19:32.119Z,101182.66
2023-04-16T22:21:35.233Z,101179.13
2023-04-16T22:23:38.440Z,101181.31
2023-04-16T22:25:41.582Z,101181.06
2023-04-16T22:27:46.080Z,101188.94
2023-04-16T22:29:49.298Z,101181.81
2023-04-16T22:31:52.422Z,101177.84
2023-04-16T22:33:55.641Z,101184.72
2023-04-16T22:35:58.561Z,101183.25
2023-04-16T22:38:01.897Z,101175.56
2023-04-16T22:40:08.306Z,101183.00
2023-04-16T22:42:12.099Z,101183.22
2023-04-16T22:44:16.848Z,101179.81
2023-04-16T22:46:21.367Z,101185.50
2023-04-16T22:48:24.415Z,101177.53
2023-04-16T22:50:28.665Z,101185.50
2023-04-16T22:52:31.537Z,101185.38
2023-04-16T22:54:34.718Z,101186.31
2023-04-16T22:56:38.914Z,101184.41
2023-04-16T22:58:41.963Z,101187.88
2023-04-16T23:00:47.607Z,101181.72
2023-04-16T23:02:50.825Z,101180.81
2023-04-16T23:04:53.739Z,101185.38
2023-04-16T23:06:56.909Z,101181.81
2023-04-16T23:08:59.843Z,101184.09
2023-04-16T23:11:02.750Z,101184.91
2023-04-16T23:13:05.673Z,101188.41
2023-04-16T23:15:09.242Z,101192.84
2023-04-16T23:17:13.898Z,101196.59
2023-04-16T23:19:17.106Z,101194.56
2023-04-16T23:21:20.007Z,101199.84
2023-04-16T23:23:22.922Z,101187.53
2023-04-16T23:25:26.174Z,101189.91
2023-04-16T23:27:29.337Z,101186.13
2023-04-16T23:29:33.028Z,101188.63
2023-04-16T23:31:36.205Z,101189.59
2023-04-16T23:33:40.714Z,101189.50
2023-04-16T23:35:43.719Z,101192.06
2023-04-16T23:37:46.624Z,101195.44
2023-04-16T23:39:49.603Z,101190.25
2023-04-16T23:41:52.675Z,101195.47
2023-04-16T23:43:56.053Z,101194.72
2023-04-16T23:45:59.458Z,101191.53